createdAt,value
2018-06-01T00:03:27.744Z,4.90
2018-06-01T00:08:56.674Z,4.70
2018-06-01T00:14:25.618Z,4.70
2018-06-01T00:19:54.514Z,4.17
2018-06-01T00:25:23.560Z,4.50
2018-06-01T00:30:51.693Z,4.37
2018-06-01T00:36:19.849Z,3.97
2018-06-01T00:41:48.002Z,3.83
2018-06-01T00:47:16.190Z,4.97
2018-06-01T00:52:44.360Z,4.33
2018-06-01T00:58:12.548Z,4.50
2018-06-01T01:03:40.716Z,3.57
2018-06-01T01:09:09.685Z,4.03
2018-06-01T01:14:37.885Z,3.60
2018-06-01T01:20:06.801Z,3.60
2018-06-01T01:25:34.936Z,3.10
2018-06-01T01:31:03.854Z,5.00
2018-06-01T01:36:31.992Z,3.17
2018-06-01T01:42:00.884Z,3.20
2018-06-01T01:47:29.040Z,2.93
2018-06-01T01:52:57.324Z,3.20
2018-06-01T01:58:27.392Z,3.43
2018-06-01T02:03:55.839Z,3.37
2018-06-01T02:09:24.122Z,3.10
2018-06-01T02:14:52.303Z,3.10
2018-06-01T02:20:20.495Z,3.10
2018-06-01T02:25:49.328Z,3.60
2018-06-01T02:31:17.485Z,2.87
2018-06-01T02:36:46.406Z,2.77
2018-06-01T02:42:14.576Z,2.23
2018-06-01T02:47:42.761Z,2.80
2018-06-01T02:53:11.707Z,3.00
2018-06-01T02:58:40.639Z,2.90
2018-06-01T03:04:08.792Z,2.87
2018-06-01T03:09:37.989Z,2.80
2018-06-01T03:15:06.909Z,2.00
2018-06-01T03:20:35.060Z,3.17
2018-06-01T03:26:03.973Z,2.80
2018-06-01T03:31:33.098Z,2.77
2018-06-01T03:37:01.248Z,2.63
2018-06-01T03:42:30.201Z,2.67
2018-06-01T03:47:59.103Z,2.80
2018-06-01T03:53:27.253Z,2.73
2018-06-01T03:58:56.169Z,2.87
2018-06-01T04:04:24.407Z,2.83
2018-06-01T04:09:53.313Z,2.90
2018-06-01T04:15:21.459Z,3.30
2018-06-01T04:20:49.600Z,2.80
2018-06-01T04:26:18.495Z,2.27
2018-06-01T04:31:47.764Z,2.90
2018-06-01T04:37:16.824Z,3.00
2018-06-01T04:42:45.735Z,2.80
2018-06-01T04:48:13.903Z,3.33
2018-06-01T04:53:42.392Z,2.97
2018-06-01T04:59:10.554Z,3.40
2018-06-01T05:04:38.706Z,2.77
2018-06-01T05:10:06.858Z,2.60
2018-06-01T05:15:35.775Z,2.60
2018-06-01T05:21:03.927Z,2.80
2018-06-01T05:26:32.084Z,3.47
2018-06-01T05:32:01.044Z,3.10
2018-06-01T05:37:30.101Z,2.30
2018-06-01T05:42:59.030Z,2.77
2018-06-01T05:48:27.188Z,2.43
2018-06-01T05:53:55.320Z,3.07
2018-06-01T05:59:23.479Z,2.70
2018-06-01T06:04:51.638Z,2.63
2018-06-01T06:10:20.554Z,3.20
2018-06-01T06:15:48.711Z,3.20
2018-06-01T06:21:16.852Z,3.30
2018-06-01T06:26:45.018Z,3.20
2018-06-01T06:32:13.185Z,3.80
2018-06-01T06:37:41.407Z,4.20
2018-06-01T06:43:09.680Z,2.97
2018-06-01T06:48:37.874Z,3.50
2018-06-01T06:54:06.050Z,3.50
2018-06-01T06:59:34.184Z,3.40
2018-06-01T07:05:02.346Z,2.93
2018-06-01T07:10:30.485Z,3.47
2018-06-01T07:15:59.381Z,3.57
2018-06-01T07:21:27.530Z,3.30
2018-06-01T07:26:55.684Z,3.20
2018-06-01T07:32:23.830Z,2.90
2018-06-01T07:37:52.041Z,3.20
2018-06-01T07:43:20.196Z,2.83
2018-06-01T07:48:48.345Z,3.40
2018-06-01T07:54:17.258Z,3.13
2018-06-01T07:59:45.413Z,3.03
2018-06-01T08:05:13.554Z,3.20
2018-06-01T08:10:41.830Z,3.33
2018-06-01T08:16:10.901Z,3.00
2018-06-01T08:21:39.082Z,3.37
2018-06-01T08:27:07.261Z,3.10
2018-06-01T08:32:35.443Z,3.30
2018-06-01T08:38:03.553Z,4.00
2018-06-01T08:43:32.468Z,3.77
2018-06-01T08:49:00.610Z,3.77
2018-06-01T08:54:29.492Z,3.43
2018-06-01T08:59:57.634Z,4.03
2018-06-01T09:05:25.780Z,3.00
2018-06-01T09:10:53.916Z,3.80
2018-06-01T09:16:22.838Z,3.30
2018-06-01T09:21:51.766Z,3.60
2018-06-01T09:27:19.949Z,3.20
2018-06-01T09:32:48.113Z,4.23
2018-06-01T09:38:16.267Z,3.70
2018-06-01T09:43:44.418Z,3.93
2018-06-01T09:49:12.631Z,2.90
2018-06-01T09:54:40.801Z,3.73
2018-06-01T10:00:09.977Z,3.20
2018-06-01T10:05:38.174Z,3.27
2018-06-01T10:11:09.305Z,2.83
2018-06-01T10:16:37.483Z,3.40
2018-06-01T10:22:06.407Z,3.17
2018-06-01T10:27:34.564Z,2.90
2018-06-01T10:33:02.795Z,3.20
2018-06-01T10:38:30.926Z,2.70
2018-06-01T10:43:59.788Z,3.70
2018-06-01T10:49:27.944Z,3.10
2018-06-01T10:54:56.110Z,3.10
2018-06-01T11:00:24.279Z,3.67
2018-06-01T11:05:53.209Z,3.87
2018-06-01T11:11:22.124Z,3.53
2018-06-01T11:16:50.260Z,2.93
2018-06-01T11:22:19.149Z,3.33
2018-06-01T11:27:47.396Z,2.70
2018-06-01T11:33:16.340Z,2.70
2018-06-01T11:38:44.541Z,3.50
2018-06-01T11:44:12.724Z,2.37
2018-06-01T11:49:40.869Z,3.47
2018-06-01T11:55:09.326Z,3.17
2018-06-01T12:00:37.636Z,3.17
2018-06-01T12:06:05.801Z,2.90
2018-06-01T12:11:33.940Z,4.17
2018-06-01T12:17:02.076Z,2.70
2018-06-01T12:22:30.293Z,2.87
2018-06-01T12:27:58.468Z,3.10
2018-06-01T12:33:27.434Z,2.70
2018-06-01T12:38:55.569Z,2.83
2018-06-01T12:44:23.708Z,3.27
2018-06-01T12:49:51.859Z,2.60
2018-06-01T12:55:20.760Z,3.20
2018-06-01T13:00:48.912Z,3.50
2018-06-01T13:06:17.919Z,3.10
2018-06-01T13:11:46.067Z,4.20
2018-06-01T13:17:16.030Z,3.33
2018-06-01T13:22:44.953Z,3.13
2018-06-01T13:28:13.918Z,3.00
2018-06-01T13:33:42.861Z,3.80
2018-06-01T13:39:11.790Z,3.53
2018-06-01T13:44:41.120Z,2.30
2018-06-01T13:50:09.355Z,2.83
2018-06-01T13:55:38.340Z,2.90
2018-06-01T14:01:06.472Z,3.03
2018-06-01T14:06:34.617Z,3.13
2018-06-01T14:12:02.781Z,2.70
2018-06-01T14:17:30.921Z,3.50
2018-06-01T14:22:59.053Z,2.80
2018-06-01T14:28:27.202Z,3.10
2018-06-01T14:33:56.126Z,4.33
2018-06-01T14:39:24.262Z,3.10
2018-06-01T14:44:53.167Z,3.00
2018-06-01T14:50:21.315Z,3.30
2018-06-01T14:55:50.231Z,3.30
2018-06-01T15:01:19.361Z,2.97
2018-06-01T15:06:47.525Z,2.90
2018-06-01T15:12:16.532Z,2.70
2018-06-01T15:17:44.677Z,2.93
2018-06-01T15:23:13.740Z,2.73
2018-06-01T15:28:41.971Z,3.33
2018-06-01T15:34:10.107Z,3.17
2018-06-01T15:39:38.259Z,3.30
2018-06-01T15:45:15.072Z,2.77
2018-06-01T15:50:44.200Z,2.90
2018-06-01T15:56:13.133Z,2.33
2018-06-01T16:01:41.304Z,2.50
2018-06-01T16:07:09.479Z,2.70
2018-06-01T16:12:37.669Z,2.43
2018-06-01T16:18:05.829Z,3.37
2018-06-01T16:23:33.948Z,2.13
2018-06-01T16:29:02.173Z,2.80
2018-06-01T16:34:30.337Z,2.20
2018-06-01T16:39:58.487Z,2.30
2018-06-01T16:45:26.629Z,2.70
2018-06-01T16:50:54.770Z,2.70
2018-06-01T16:56:23.681Z,2.30
2018-06-01T17:01:51.823Z,2.60
2018-06-01T17:07:19.986Z,2.70
2018-06-01T17:12:48.236Z,2.50
2018-06-01T17:18:16.391Z,2.67
2018-06-01T17:23:45.463Z,2.50
2018-06-01T17:29:13.666Z,3.10
2018-06-01T17:34:41.846Z,2.70
2018-06-01T17:40:11.707Z,2.37
2018-06-01T17:45:41.006Z,2.57
2018-06-01T17:51:10.079Z,2.70
2018-06-01T17:56:38.288Z,3.50
2018-06-01T18:02:06.438Z,2.60
2018-06-01T18:07:34.590Z,2.80
2018-06-01T18:13:03.496Z,3.10
2018-06-01T18:18:31.646Z,4.20
2018-06-01T18:23:59.795Z,3.10
2018-06-01T18:29:27.967Z,3.00
2018-06-01T18:34:56.759Z,3.20
2018-06-01T18:40:24.922Z,3.37
2018-06-01T18:45:54.789Z,3.20
2018-06-01T18:51:23.726Z,3.40
2018-06-01T18:56:52.655Z,3.67
2018-06-01T19:02:20.854Z,3.60
2018-06-01T19:07:49.007Z,3.57
2018-06-01T19:13:17.992Z,4.60
2018-06-01T19:18:46.180Z,4.43
2018-06-01T19:24:14.384Z,4.67
2018-06-01T19:29:43.334Z,3.23
2018-06-01T19:35:11.543Z,3.50
2018-06-01T19:40:39.771Z,3.93
2018-06-01T19:46:09.666Z,3.33
2018-06-01T19:51:37.902Z,2.90
2018-06-01T19:57:06.098Z,4.03
2018-06-01T20:02:34.276Z,3.97
2018-06-01T20:08:03.205Z,3.40
2018-06-01T20:13:32.356Z,3.73
2018-06-01T20:19:00.749Z,3.63
2018-06-01T20:24:28.888Z,3.63
2018-06-01T20:29:57.079Z,4.27
2018-06-01T20:35:25.961Z,4.00
2018-06-01T20:40:54.901Z,4.57
2018-06-01T20:46:23.851Z,6.60
2018-06-01T20:51:52.756Z,5.70
2018-06-01T20:57:20.912Z,5.10
2018-06-01T21:02:49.818Z,4.07
2018-06-01T21:08:17.984Z,4.57
2018-06-01T21:13:46.131Z,4.90
2018-06-01T21:19:14.330Z,4.80
2018-06-01T21:24:42.783Z,4.43
2018-06-01T21:30:12.374Z,4.27
2018-06-01T21:35:40.553Z,4.50
2018-06-01T21:41:08.857Z,4.13
2018-06-01T21:46:36.994Z,4.53
2018-06-01T21:52:05.137Z,5.20
2018-06-01T21:57:33.546Z,4.50
2018-06-01T22:03:01.695Z,5.30
2018-06-01T22:08:33.697Z,4.57
2018-06-01T22:14:02.746Z,4.87
2018-06-01T22:19:30.899Z,4.80
2018-06-01T22:24:59.082Z,4.33
2018-06-01T22:30:27.230Z,4.70
2018-06-01T22:35:55.359Z,5.47
2018-06-01T22:41:24.491Z,4.13
2018-06-01T22:46:52.622Z,4.50
2018-06-01T22:52:20.762Z,3.93
2018-06-01T22:57:48.904Z,5.00
2018-06-01T23:03:17.043Z,4.87
2018-06-01T23:08:45.995Z,4.70
2018-06-01T23:14:14.966Z,3.97
2018-06-01T23:19:43.172Z,4.60
2018-06-01T23:25:11.389Z,7.00
2018-06-01T23:30:43.415Z,5.37
2018-06-01T23:36:11.797Z,4.67
2018-06-01T23:41:40.742Z,4.77
2018-06-01T23:47:09.729Z,4.87
2018-06-01T23:52:37.957Z,5.47
2018-06-01T23:58:06.116Z,5.13
